sensor_id;sensor_type;location;lat;lon;timestamp;P1;durP1;ratioP1;P2;durP2;ratioP2
26838;SDS011;40088;51.214;6.786;2023-04-03T00:04:27;6.70;;;4.70;;
26838;SDS011;40088;51.214;6.786;2023-04-03T00:14:27;5.03;;;4.53;;
26838;SDS011;40088;51.214;6.786;2023-04-03T00:24:28;4.70;;;3.60;;
26838;SDS011;40088;51.214;6.786;2023-04-03T00:34:28;5.50;;;3.83;;
26838;SDS011;40088;51.214;6.786;2023-04-03T00:54:59;4.57;;;3.45;;
26838;SDS011;40088;51.214;6.786;2023-04-03T01:05:03;6.00;;;3.70;;
26838;SDS011;40088;51.214;6.786;2023-04-03T01:15:24;4.32;;;3.60;;
26838;SDS011;40088;51.214;6.786;2023-04-03T01:25:26;6.88;;;4.53;;
26838;SDS011;40088;51.214;6.786;2023-04-03T01:35:26;4.97;;;3.87;;
26838;SDS011;40088;51.214;6.786;2023-04-03T01:45:27;6.78;;;3.80;;
26838;SDS011;40088;51.214;6.786;2023-04-03T01:55:27;4.00;;;3.35;;
26838;SDS011;40088;51.214;6.786;2023-04-03T02:05:27;6.18;;;4.20;;
26838;SDS011;40088;51.214;6.786;2023-04-03T02:15:28;3.88;;;3.00;;
26838;SDS011;40088;51.214;6.786;2023-04-03T02:25:29;4.72;;;3.60;;
26838;SDS011;40088;51.214;6.786;2023-04-03T02:35:31;4.97;;;3.80;;
26838;SDS011;40088;51.214;6.786;2023-04-03T02:45:31;3.47;;;2.85;;
26838;SDS011;40088;51.214;6.786;2023-04-03T02:55:31;4.20;;;2.95;;
26838;SDS011;40088;51.214;6.786;2023-04-03T03:05:31;3.05;;;2.40;;
26838;SDS011;40088;51.214;6.786;2023-04-03T03:15:32;4.57;;;3.03;;
26838;SDS011;40088;51.214;6.786;2023-04-03T03:25:32;4.00;;;2.72;;
26838;SDS011;40088;51.214;6.786;2023-04-03T03:35:32;4.13;;;2.83;;
26838;SDS011;40088;51.214;6.786;2023-04-03T03:45:33;3.83;;;2.50;;
26838;SDS011;40088;51.214;6.786;2023-04-03T03:55:33;4.32;;;3.03;;
26838;SDS011;40088;51.214;6.786;2023-04-03T04:05:34;4.72;;;2.97;;
26838;SDS011;40088;51.214;6.786;2023-04-03T04:15:34;3.80;;;2.53;;
26838;SDS011;40088;51.214;6.786;2023-04-03T04:25:34;3.20;;;2.50;;
26838;SDS011;40088;51.214;6.786;2023-04-03T04:35:35;5.05;;;2.80;;
26838;SDS011;40088;51.214;6.786;2023-04-03T04:45:35;3.20;;;2.45;;
26838;SDS011;40088;51.214;6.786;2023-04-03T04:55:35;5.22;;;2.65;;
26838;SDS011;40088;51.214;6.786;2023-04-03T05:05:36;3.63;;;2.95;;
26838;SDS011;40088;51.214;6.786;2023-04-03T05:15:36;4.13;;;2.40;;
26838;SDS011;40088;51.214;6.786;2023-04-03T05:25:37;3.92;;;2.60;;
26838;SDS011;40088;51.214;6.786;2023-04-03T05:35:38;3.45;;;2.50;;
26838;SDS011;40088;51.214;6.786;2023-04-03T05:45:40;4.47;;;2.58;;
26838;SDS011;40088;51.214;6.786;2023-04-03T05:55:40;4.18;;;2.60;;
26838;SDS011;40088;51.214;6.786;2023-04-03T06:05:40;3.03;;;2.40;;
26838;SDS011;40088;51.214;6.786;2023-04-03T06:15:41;3.75;;;2.60;;
26838;SDS011;40088;51.214;6.786;2023-04-03T06:25:42;4.60;;;2.35;;
26838;SDS011;40088;51.214;6.786;2023-04-03T06:35:42;2.83;;;2.20;;
26838;SDS011;40088;51.214;6.786;2023-04-03T06:45:42;4.65;;;2.50;;
26838;SDS011;40088;51.214;6.786;2023-04-03T06:55:42;4.38;;;2.55;;
26838;SDS011;40088;51.214;6.786;2023-04-03T07:05:43;3.40;;;2.13;;
26838;SDS011;40088;51.214;6.786;2023-04-03T07:15:44;3.63;;;2.05;;
26838;SDS011;40088;51.214;6.786;2023-04-03T07:25:45;3.72;;;2.33;;
26838;SDS011;40088;51.214;6.786;2023-04-03T07:35:47;5.72;;;2.65;;
26838;SDS011;40088;51.214;6.786;2023-04-03T07:45:49;3.72;;;2.25;;
26838;SDS011;40088;51.214;6.786;2023-04-03T07:55:50;5.40;;;2.70;;
26838;SDS011;40088;51.214;6.786;2023-04-03T08:06:00;4.60;;;3.00;;
26838;SDS011;40088;51.214;6.786;2023-04-03T08:16:07;4.60;;;1.98;;
26838;SDS011;40088;51.214;6.786;2023-04-03T08:26:13;2.92;;;2.00;;
26838;SDS011;40088;51.214;6.786;2023-04-03T08:36:16;3.53;;;2.05;;
26838;SDS011;40088;51.214;6.786;2023-04-03T08:46:17;3.08;;;2.03;;
26838;SDS011;40088;51.214;6.786;2023-04-03T08:56:21;3.47;;;2.17;;
26838;SDS011;40088;51.214;6.786;2023-04-03T09:06:26;4.38;;;2.10;;
26838;SDS011;40088;51.214;6.786;2023-04-03T09:26:56;5.05;;;1.98;;
26838;SDS011;40088;51.214;6.786;2023-04-03T09:37:03;3.28;;;2.40;;
26838;SDS011;40088;51.214;6.786;2023-04-03T09:47:28;3.10;;;1.90;;
26838;SDS011;40088;51.214;6.786;2023-04-03T09:57:32;3.38;;;2.00;;
26838;SDS011;40088;51.214;6.786;2023-04-03T10:07:34;2.33;;;1.90;;
26838;SDS011;40088;51.214;6.786;2023-04-03T10:27:55;3.33;;;1.98;;
26838;SDS011;40088;51.214;6.786;2023-04-03T10:38:20;3.03;;;2.17;;
26838;SDS011;40088;51.214;6.786;2023-04-03T10:59:47;4.00;;;2.47;;
26838;SDS011;40088;51.214;6.786;2023-04-03T11:09:55;3.13;;;2.25;;
26838;SDS011;40088;51.214;6.786;2023-04-03T11:30:07;2.30;;;1.77;;
26838;SDS011;40088;51.214;6.786;2023-04-03T11:40:20;4.05;;;2.50;;
26838;SDS011;40088;51.214;6.786;2023-04-03T12:21:10;4.25;;;1.45;;
26838;SDS011;40088;51.214;6.786;2023-04-03T12:31:12;6.23;;;1.60;;
26838;SDS011;40088;51.214;6.786;2023-04-03T12:51:30;59.08;;;49.58;;
26838;SDS011;40088;51.214;6.786;2023-04-03T13:01:37;49.03;;;38.65;;
26838;SDS011;40088;51.214;6.786;2023-04-03T13:11:38;35.83;;;29.48;;
26838;SDS011;40088;51.214;6.786;2023-04-03T13:21:41;33.42;;;28.02;;
26838;SDS011;40088;51.214;6.786;2023-04-03T13:31:44;30.73;;;22.55;;
26838;SDS011;40088;51.214;6.786;2023-04-03T13:41:45;52.63;;;38.90;;
26838;SDS011;40088;51.214;6.786;2023-04-03T13:51:50;68.57;;;56.60;;
26838;SDS011;40088;51.214;6.786;2023-04-03T14:01:53;56.72;;;46.50;;
26838;SDS011;40088;51.214;6.786;2023-04-03T14:12:02;120.15;;;86.82;;
26838;SDS011;40088;51.214;6.786;2023-04-03T14:22:11;38.40;;;30.63;;
26838;SDS011;40088;51.214;6.786;2023-04-03T14:32:15;24.85;;;18.95;;
26838;SDS011;40088;51.214;6.786;2023-04-03T14:42:18;21.05;;;16.23;;
26838;SDS011;40088;51.214;6.786;2023-04-03T14:52:22;12.20;;;7.95;;
26838;SDS011;40088;51.214;6.786;2023-04-03T15:02:27;7.70;;;4.45;;
26838;SDS011;40088;51.214;6.786;2023-04-03T15:12:34;9.32;;;6.10;;
26838;SDS011;40088;51.214;6.786;2023-04-03T15:22:35;11.82;;;7.63;;
26838;SDS011;40088;51.214;6.786;2023-04-03T15:32:35;705.42;;;65.22;;
26838;SDS011;40088;51.214;6.786;2023-04-03T15:42:36;391.87;;;34.17;;
26838;SDS011;40088;51.214;6.786;2023-04-03T15:52:36;224.77;;;42.22;;
26838;SDS011;40088;51.214;6.786;2023-04-03T16:02:36;230.85;;;38.25;;
26838;SDS011;40088;51.214;6.786;2023-04-03T16:12:37;108.85;;;27.38;;
26838;SDS011;40088;51.214;6.786;2023-04-03T16:22:37;102.90;;;31.92;;
26838;SDS011;40088;51.214;6.786;2023-04-03T16:32:39;71.70;;;35.47;;
26838;SDS011;40088;51.214;6.786;2023-04-03T16:42:40;62.75;;;40.88;;
26838;SDS011;40088;51.214;6.786;2023-04-03T16:52:41;47.25;;;26.95;;
26838;SDS011;40088;51.214;6.786;2023-04-03T17:02:41;44.90;;;24.88;;
26838;SDS011;40088;51.214;6.786;2023-04-03T17:12:41;49.35;;;36.75;;
26838;SDS011;40088;51.214;6.786;2023-04-03T17:22:42;46.80;;;26.27;;
26838;SDS011;40088;51.214;6.786;2023-04-03T17:32:42;78.40;;;36.33;;
26838;SDS011;40088;51.214;6.786;2023-04-03T17:42:42;161.50;;;39.53;;
26838;SDS011;40088;51.214;6.786;2023-04-03T17:52:42;94.82;;;30.92;;
26838;SDS011;40088;51.214;6.786;2023-04-03T18:02:43;130.02;;;50.28;;
26838;SDS011;40088;51.214;6.786;2023-04-03T18:12:43;117.10;;;65.18;;
26838;SDS011;40088;51.214;6.786;2023-04-03T18:22:43;94.13;;;52.50;;
26838;SDS011;40088;51.214;6.786;2023-04-03T18:32:44;63.00;;;41.15;;
26838;SDS011;40088;51.214;6.786;2023-04-03T18:42:44;54.15;;;32.67;;
26838;SDS011;40088;51.214;6.786;2023-04-03T18:52:45;39.72;;;26.13;;
26838;SDS011;40088;51.214;6.786;2023-04-03T19:02:49;36.40;;;23.00;;
26838;SDS011;40088;51.214;6.786;2023-04-03T19:12:50;25.40;;;19.10;;
26838;SDS011;40088;51.214;6.786;2023-04-03T19:22:50;27.47;;;15.77;;
26838;SDS011;40088;51.214;6.786;2023-04-03T19:32:53;31.33;;;14.90;;
26838;SDS011;40088;51.214;6.786;2023-04-03T19:42:54;47.13;;;34.17;;
26838;SDS011;40088;51.214;6.786;2023-04-03T19:52:54;49.95;;;34.92;;
26838;SDS011;40088;51.214;6.786;2023-04-03T20:02:55;100.38;;;69.30;;
26838;SDS011;40088;51.214;6.786;2023-04-03T20:12:55;149.85;;;101.82;;
26838;SDS011;40088;51.214;6.786;2023-04-03T20:22:55;110.10;;;76.15;;
26838;SDS011;40088;51.214;6.786;2023-04-03T20:32:56;88.60;;;61.67;;
26838;SDS011;40088;51.214;6.786;2023-04-03T20:42:58;89.60;;;64.38;;
26838;SDS011;40088;51.214;6.786;2023-04-03T20:52:59;90.95;;;66.88;;
26838;SDS011;40088;51.214;6.786;2023-04-03T21:03:00;89.63;;;63.20;;
26838;SDS011;40088;51.214;6.786;2023-04-03T21:23:39;81.63;;;53.22;;
26838;SDS011;40088;51.214;6.786;2023-04-03T21:33:39;67.57;;;49.25;;
26838;SDS011;40088;51.214;6.786;2023-04-03T21:43:40;74.30;;;53.13;;
26838;SDS011;40088;51.214;6.786;2023-04-03T21:53:40;81.38;;;55.65;;
26838;SDS011;40088;51.214;6.786;2023-04-03T22:03:42;78.20;;;58.28;;
26838;SDS011;40088;51.214;6.786;2023-04-03T22:13:44;78.50;;;58.47;;
26838;SDS011;40088;51.214;6.786;2023-04-03T22:23:44;68.28;;;53.90;;
26838;SDS011;40088;51.214;6.786;2023-04-03T22:33:44;66.45;;;53.72;;
26838;SDS011;40088;51.214;6.786;2023-04-03T22:43:45;86.93;;;66.95;;
26838;SDS011;40088;51.214;6.786;2023-04-03T22:53:45;77.90;;;61.23;;
26838;SDS011;40088;51.214;6.786;2023-04-03T23:03:46;95.90;;;74.78;;
26838;SDS011;40088;51.214;6.786;2023-04-03T23:13:47;94.57;;;77.05;;
26838;SDS011;40088;51.214;6.786;2023-04-03T23:23:47;89.15;;;67.13;;
26838;SDS011;40088;51.214;6.786;2023-04-03T23:33:48;91.10;;;59.95;;
26838;SDS011;40088;51.214;6.786;2023-04-03T23:43:48;92.63;;;70.70;;
26838;SDS011;40088;51.214;6.786;2023-04-03T23:53:48;83.03;;;63.75;;
